Kasagimaru — JJ3905 — position and weather

sailwx.info

Track history (hours):
 
Tides and Currents Weather Stations Pressure Air Temp Water Temp Dewpoint Dewpoint Depression Visibility Wind Speed Wind Dir Waves Ship Positions

Kasagimaru

Last reported at 2017-Apr-26 23:31 UTC. Time now 2017-Apr-27 13:02 UTC.
Position N 34°38' E 135°00'.

Length 42 m; draft 3.5 m.

Type: Tug. MMSI: 431300268.

Date/timePositionNaut miles runAvg speedWind from/ knotsBaromVisibWave heightAir tempDewpointWater temp
2017-Apr-26 23:31N 34°38' E 135°00'015.5
2017-Apr-26 23:30N 34°38' E 135°01'611.5
2017-Apr-26 23:00N 34°35' E 135°07'4 7.2
2017-Apr-26 22:30N 34°32' E 135°09'2111.7
2017-Apr-26 20:45N 34°13' E 134°60'2 7.6
2017-Apr-26 20:30N 34°12' E 134°60'2 4.0
2017-Apr-26 20:00N 34°11' E 135°02'510.9
2017-Apr-26 19:31N 34°13' E 135°09'0 0.0
2017-Apr-26 19:01N 34°13' E 135°09'0 0.0
2017-Apr-26 18:29N 34°13' E 135°09'0 0.0
2017-Apr-26 17:59N 34°13' E 135°09'0 0.0
2017-Apr-26 17:29N 34°13' E 135°09'0 0.0
2017-Apr-26 16:59N 34°13' E 135°09'0 0.0
2017-Apr-26 16:29N 34°13' E 135°09'0 0.0
2017-Apr-26 15:59N 34°13' E 135°09'0 0.0
2017-Apr-26 15:29N 34°13' E 135°09'0 0.0
2017-Apr-26 14:59N 34°13' E 135°09'0 0.0
2017-Apr-26 14:29N 34°13' E 135°09'0 0.0
2017-Apr-26 13:29N 34°13' E 135°09'0 0.0
2017-Apr-26 12:59N 34°13' E 135°09'0 0.0
2017-Apr-26 12:29N 34°13' E 135°09'0 0.0
2017-Apr-26 11:59N 34°13' E 135°09'0 0.0
2017-Apr-26 11:29N 34°13' E 135°09'0 0.0
2017-Apr-26 10:59N 34°13' E 135°09'0 0.0
2017-Apr-26 10:17N 34°13' E 135°09'0 0.0
2017-Apr-26 09:59N 34°13' E 135°09'0 0.0
2017-Apr-26 09:29N 34°13' E 135°09'0 0.0
2017-Apr-26 08:59N 34°13' E 135°09'0 0.0
2017-Apr-26 08:29N 34°13' E 135°09'0 0.7
2017-Apr-26 08:00N 34°13' E 135°08'13 8.9
2017-Apr-26 06:33N 34°25' E 135°11'113.6
2017-Apr-26 06:29N 34°26' E 135°11'612.7
2017-Apr-26 06:00N 34°31' E 135°16'612.1
2017-Apr-26 05:30N 34°35' E 135°21'4 7.2
2017-Apr-26 05:00N 34°38' E 135°24'1 1.9
2017-Apr-26 04:30N 34°38' E 135°23'2 3.5
2017-Apr-26 04:00N 34°36' E 135°24'1 2.3
2017-Apr-26 03:30N 34°35' E 135°23'3 6.2
2017-Apr-26 03:00N 34°32' E 135°23'1 2.3
2017-Apr-26 02:26N 34°31' E 135°24'4 1.7
2017-Apr-26 00:08N 34°33' E 135°20'0 0.5
2017-Apr-26 00:00N 34°33' E 135°20'3 6.0
2017-Apr-25 23:30N 34°33' E 135°24'0 0.5
2017-Apr-25 22:59N 34°33' E 135°24'1 1.6
2017-Apr-25 22:30N 34°32' E 135°24'2 3.8
2017-Apr-25 22:00N 34°33' E 135°22'0 0.8
2017-Apr-25 21:30N 34°33' E 135°23'3 6.4
2017-Apr-25 21:00N 34°33' E 135°27'0 0.0
2017-Apr-25 07:59N 34°33' E 135°27'0 0.0
2017-Apr-25 07:17N 34°33' E 135°27'0 0.0
2017-Apr-25 06:53N 34°33' E 135°27'0 0.0
2017-Apr-25 01:04N 34°33' E 135°27'0 3.9
2017-Apr-25 01:00N 34°33' E 135°26'1 1.7
2017-Apr-25 00:24N 34°33' E 135°25'0 0.7
2017-Apr-25 00:00N 34°33' E 135°25'0 0.2
2017-Apr-24 23:29N 34°33' E 135°25'1 2.5
2017-Apr-24 23:00N 34°33' E 135°24'0 0.1
2017-Apr-24 22:29N 34°33' E 135°24'2 3.7
2017-Apr-24 21:57N 34°31' E 135°23'0 0.2
2017-Apr-24 21:30N 34°31' E 135°23'2 4.3
2017-Apr-24 21:00N 34°33' E 135°24'2 0.3
2017-Apr-24 14:29N 34°33' E 135°27'0 0.0
2017-Apr-24 13:05N 34°33' E 135°27'0 0.0
2017-Apr-24 10:07N 34°33' E 135°27'0 0.0
2017-Apr-24 09:57N 34°33' E 135°27'510.7
2017-Apr-24 09:29N 34°33' E 135°21'510.3
2017-Apr-24 09:00N 34°35' E 135°15'612.5
2017-Apr-24 08:30N 34°35' E 135°07'5 0.7
2017-Apr-24 01:50N 34°37' E 135°02'310.5
2017-Apr-24 01:30N 34°36' E 135°06'611.4
2017-Apr-24 01:00N 34°35' E 135°13'611.5
2017-Apr-24 00:30N 34°34' E 135°20'6 0.4
2017-Apr-23 09:34N 34°33' E 135°27'0 0.0
2017-Apr-23 09:22N 34°33' E 135°27'0 0.0
2017-Apr-23 08:22N 34°33' E 135°27'0 0.0
2017-Apr-23 06:58N 34°33' E 135°27'0 0.0
2017-Apr-23 06:16N 34°33' E 135°27'0 1.7
2017-Apr-23 05:59N 34°33' E 135°26'0 0.0
2017-Apr-23 05:30N 34°33' E 135°26'0 0.1
2017-Apr-23 04:55N 34°33' E 135°26'0 0.1
2017-Apr-23 04:29N 34°33' E 135°26'0 0.9
2017-Apr-23 03:59N 34°33' E 135°26'2 4.8
2017-Apr-23 03:29N 34°33' E 135°23'2 3.2
2017-Apr-23 02:59N 34°34' E 135°21'5 1.6
2017-Apr-22 23:52N 34°33' E 135°27'0 0.0
2017-Apr-22 23:29N 34°33' E 135°27'0 0.0
2017-Apr-22 04:26N 34°33' E 135°27'2 0.9
2017-Apr-22 02:34N 34°34' E 135°24'0 0.9
2017-Apr-22 02:08N 34°33' E 135°24'3 5.6
2017-Apr-22 01:36N 34°33' E 135°20'0 1.3
2017-Apr-22 01:30N 34°33' E 135°20'0 0.4
2017-Apr-22 01:00N 34°33' E 135°20'3 3.0
2017-Apr-21 23:50N 34°31' E 135°24'0 0.0
2017-Apr-21 23:23N 34°31' E 135°24'0 0.7
2017-Apr-21 22:57N 34°31' E 135°24'1 1.3
2017-Apr-21 22:30N 34°31' E 135°23'2 3.5
2017-Apr-21 21:59N 34°32' E 135°22'1 1.2
2017-Apr-21 21:30N 34°32' E 135°23'3 0.3
2017-Apr-21 09:16N 34°33' E 135°27'0 0.0
2017-Apr-21 08:57N 34°33' E 135°27'0 0.0
2017-Apr-21 08:30N 34°33' E 135°27'0 0.0
2017-Apr-21 07:56N 34°33' E 135°27'0 0.0
2017-Apr-21 07:20N 34°33' E 135°27'0 0.0
2017-Apr-21 06:54N 34°33' E 135°27'0 0.0
2017-Apr-21 06:30N 34°33' E 135°27'0 0.0
2017-Apr-21 05:56N 34°33' E 135°27'0 0.0
2017-Apr-21 05:30N 34°33' E 135°27'0 0.0
2017-Apr-21 03:17N 34°33' E 135°27'2 4.1
2017-Apr-21 02:52N 34°33' E 135°25'1 1.1
2017-Apr-21 02:21N 34°34' E 135°24'0 0.0
2017-Apr-21 01:56N 34°34' E 135°24'0 0.1
2017-Apr-21 01:24N 34°34' E 135°24'1 1.5
2017-Apr-21 00:59N 34°33' E 135°24'3 6.5
2017-Apr-21 00:30N 34°33' E 135°20'1 2.6
2017-Apr-20 23:57N 34°33' E 135°22'4 9.4
2017-Apr-20 23:31N 34°33' E 135°27'0 0.0
2017-Apr-20 09:04N 34°33' E 135°27'0 0.0
2017-Apr-19 07:15N 34°33' E 135°27'0 0.0
2017-Apr-19 06:21N 34°33' E 135°27'0 0.0
2017-Apr-19 05:45N 34°33' E 135°27'0 0.0
2017-Apr-19 05:21N 34°33' E 135°27'0 0.0
2017-Apr-19 04:51N 34°33' E 135°27'0 0.2
2017-Apr-19 03:43N 34°33' E 135°26'310.5
2017-Apr-19 03:26N 34°34' E 135°23'1 2.6
2017-Apr-19 03:00N 34°33' E 135°24'0 0.2
2017-Apr-19 02:30N 34°33' E 135°24'0 0.5
2017-Apr-19 02:00N 34°33' E 135°24'2 1.2
2017-Apr-19 00:29N 34°31' E 135°24'0 0.0
2017-Apr-18 23:57N 34°31' E 135°24'1 1.4
2017-Apr-18 23:30N 34°32' E 135°24'612.2
2017-Apr-18 23:01N 34°33' E 135°17'612.7
2017-Apr-18 22:30N 34°34' E 135°09'713.4
2017-Apr-18 22:00N 34°37' E 135°01'3 1.2
2017-Apr-18 19:29N 34°37' E 134°58'4 8.5
2017-Apr-18 19:00N 34°36' E 135°03'3 6.4
2017-Apr-18 18:30N 34°36' E 135°07'3 6.8
2017-Apr-18 18:00N 34°33' E 135°09'712.8
2017-Apr-18 17:28N 34°26' E 135°05'713.9
2017-Apr-18 16:58N 34°20' E 135°01'613.5
2017-Apr-18 16:30N 34°14' E 134°60'3 5.6
2017-Apr-18 15:58N 34°11' E 135°01'1 3.1
2017-Apr-18 15:30N 34°12' E 135°03'5 9.9
2017-Apr-18 15:00N 34°13' E 135°08'0 0.2
2017-Apr-18 14:30N 34°13' E 135°09'0 0.0
2017-Apr-18 13:30N 34°13' E 135°09'0 0.0
2017-Apr-18 13:00N 34°13' E 135°09'0 0.0
2017-Apr-18 12:30N 34°13' E 135°09'0 0.0
2017-Apr-18 12:00N 34°13' E 135°09'0 0.0
2017-Apr-18 11:24N 34°13' E 135°09'0 0.0
2017-Apr-18 11:00N 34°13' E 135°09'0 0.0
2017-Apr-18 10:30N 34°13' E 135°09'0 0.0
2017-Apr-18 10:00N 34°13' E 135°09'0 0.0
2017-Apr-18 09:30N 34°13' E 135°09'0 0.0
2017-Apr-18 09:00N 34°13' E 135°09'0 0.0
2017-Apr-18 08:30N 34°13' E 135°09'0 0.0
2017-Apr-18 08:00N 34°13' E 135°09'0 0.0
2017-Apr-18 07:30N 34°13' E 135°09'0 0.0
2017-Apr-18 06:54N 34°13' E 135°09'0 0.0
2017-Apr-18 06:27N 34°13' E 135°09'5 9.7
2017-Apr-18 05:55N 34°15' E 135°03'712.0
2017-Apr-18 05:21N 34°21' E 135°08'412.3
2017-Apr-18 05:00N 34°23' E 135°12'612.3
2017-Apr-18 04:30N 34°27' E 135°18'612.1
2017-Apr-18 04:00N 34°32' E 135°22'2 3.8
2017-Apr-18 03:30N 34°33' E 135°24'0 0.1
2017-Apr-18 03:00N 34°33' E 135°24'0 0.2
2017-Apr-18 02:30N 34°33' E 135°24'2 3.8
2017-Apr-18 01:54N 34°33' E 135°21'1 2.6
2017-Apr-18 01:30N 34°33' E 135°20'0 0.1
2017-Apr-18 01:00N 34°33' E 135°20'3 6.6
2017-Apr-18 00:30N 34°34' E 135°24'1 2.9
2017-Apr-18 00:00N 34°33' E 135°26'1 0.9
2017-Apr-17 23:22N 34°34' E 135°25'0 0.5
2017-Apr-17 22:55N 34°34' E 135°25'0 0.5
2017-Apr-17 22:27N 34°33' E 135°25'4 6.6
2017-Apr-17 21:52N 34°33' E 135°20'2 5.8
2017-Apr-17 21:30N 34°35' E 135°18'610.3
2017-Apr-17 20:58N 34°31' E 135°23'0 0.9
2017-Apr-17 20:30N 34°31' E 135°24'0 0.6
2017-Apr-17 19:57N 34°31' E 135°24'0 0.0
2017-Apr-17 10:19N 34°31' E 135°24'2 7.5
2017-Apr-17 10:00N 34°32' E 135°21'611.2
2017-Apr-17 09:30N 34°29' E 135°15'9 3.3
2017-Apr-17 06:45N 34°30' E 135°05'310.5
2017-Apr-17 06:29N 34°32' E 135°06'2 4.6
2017-Apr-17 06:00N 34°35' E 135°06'  
Track history (hours):
 
Tides and Currents Weather Stations Pressure Air Temp Water Temp Dewpoint Dewpoint Depression Visibility Wind Speed Wind Dir Waves Ship Positions

Kasagimaru

Last reported at 2017-Apr-26 23:31 UTC. Time now 2017-Apr-27 13:02 UTC.
Position N 34°38' E 135°00'.

Length 42 m; draft 3.5 m.

Type: Tug. MMSI: 431300268.

Date/timePositionNaut miles runAvg speedWind from/ knotsBaromVisibWave heightAir tempDewpointWater temp
2017-Apr-26 23:31N 34°38' E 135°00'015.5
2017-Apr-26 23:30N 34°38' E 135°01'611.5
2017-Apr-26 23:00N 34°35' E 135°07'4 7.2
2017-Apr-26 22:30N 34°32' E 135°09'2111.7
2017-Apr-26 20:45N 34°13' E 134°60'2 7.6
2017-Apr-26 20:30N 34°12' E 134°60'2 4.0
2017-Apr-26 20:00N 34°11' E 135°02'510.9
2017-Apr-26 19:31N 34°13' E 135°09'0 0.0
2017-Apr-26 19:01N 34°13' E 135°09'0 0.0
2017-Apr-26 18:29N 34°13' E 135°09'0 0.0
2017-Apr-26 17:59N 34°13' E 135°09'0 0.0
2017-Apr-26 17:29N 34°13' E 135°09'0 0.0
2017-Apr-26 16:59N 34°13' E 135°09'0 0.0
2017-Apr-26 16:29N 34°13' E 135°09'0 0.0
2017-Apr-26 15:59N 34°13' E 135°09'0 0.0
2017-Apr-26 15:29N 34°13' E 135°09'0 0.0
2017-Apr-26 14:59N 34°13' E 135°09'0 0.0
2017-Apr-26 14:29N 34°13' E 135°09'0 0.0
2017-Apr-26 13:29N 34°13' E 135°09'0 0.0
2017-Apr-26 12:59N 34°13' E 135°09'0 0.0
2017-Apr-26 12:29N 34°13' E 135°09'0 0.0
2017-Apr-26 11:59N 34°13' E 135°09'0 0.0
2017-Apr-26 11:29N 34°13' E 135°09'0 0.0
2017-Apr-26 10:59N 34°13' E 135°09'0 0.0
2017-Apr-26 10:17N 34°13' E 135°09'0 0.0
2017-Apr-26 09:59N 34°13' E 135°09'0 0.0
2017-Apr-26 09:29N 34°13' E 135°09'0 0.0
2017-Apr-26 08:59N 34°13' E 135°09'0 0.0
2017-Apr-26 08:29N 34°13' E 135°09'0 0.7
2017-Apr-26 08:00N 34°13' E 135°08'13 8.9
2017-Apr-26 06:33N 34°25' E 135°11'113.6
2017-Apr-26 06:29N 34°26' E 135°11'612.7
2017-Apr-26 06:00N 34°31' E 135°16'612.1
2017-Apr-26 05:30N 34°35' E 135°21'4 7.2
2017-Apr-26 05:00N 34°38' E 135°24'1 1.9
2017-Apr-26 04:30N 34°38' E 135°23'2 3.5
2017-Apr-26 04:00N 34°36' E 135°24'1 2.3
2017-Apr-26 03:30N 34°35' E 135°23'3 6.2
2017-Apr-26 03:00N 34°32' E 135°23'1 2.3
2017-Apr-26 02:26N 34°31' E 135°24'4 1.7
2017-Apr-26 00:08N 34°33' E 135°20'0 0.5
2017-Apr-26 00:00N 34°33' E 135°20'3 6.0
2017-Apr-25 23:30N 34°33' E 135°24'0 0.5
2017-Apr-25 22:59N 34°33' E 135°24'1 1.6
2017-Apr-25 22:30N 34°32' E 135°24'2 3.8
2017-Apr-25 22:00N 34°33' E 135°22'0 0.8
2017-Apr-25 21:30N 34°33' E 135°23'3 6.4
2017-Apr-25 21:00N 34°33' E 135°27'0 0.0
2017-Apr-25 07:59N 34°33' E 135°27'0 0.0
2017-Apr-25 07:17N 34°33' E 135°27'0 0.0
2017-Apr-25 06:53N 34°33' E 135°27'0 0.0
2017-Apr-25 01:04N 34°33' E 135°27'0 3.9
2017-Apr-25 01:00N 34°33' E 135°26'1 1.7
2017-Apr-25 00:24N 34°33' E 135°25'0 0.7
2017-Apr-25 00:00N 34°33' E 135°25'0 0.2
2017-Apr-24 23:29N 34°33' E 135°25'1 2.5
2017-Apr-24 23:00N 34°33' E 135°24'0 0.1
2017-Apr-24 22:29N 34°33' E 135°24'2 3.7
2017-Apr-24 21:57N 34°31' E 135°23'0 0.2
2017-Apr-24 21:30N 34°31' E 135°23'2 4.3
2017-Apr-24 21:00N 34°33' E 135°24'2 0.3
2017-Apr-24 14:29N 34°33' E 135°27'0 0.0
2017-Apr-24 13:05N 34°33' E 135°27'0 0.0
2017-Apr-24 10:07N 34°33' E 135°27'0 0.0
2017-Apr-24 09:57N 34°33' E 135°27'510.7
2017-Apr-24 09:29N 34°33' E 135°21'510.3
2017-Apr-24 09:00N 34°35' E 135°15'612.5
2017-Apr-24 08:30N 34°35' E 135°07'5 0.7
2017-Apr-24 01:50N 34°37' E 135°02'310.5
2017-Apr-24 01:30N 34°36' E 135°06'611.4
2017-Apr-24 01:00N 34°35' E 135°13'611.5
2017-Apr-24 00:30N 34°34' E 135°20'6 0.4
2017-Apr-23 09:34N 34°33' E 135°27'0 0.0
2017-Apr-23 09:22N 34°33' E 135°27'0 0.0
2017-Apr-23 08:22N 34°33' E 135°27'0 0.0
2017-Apr-23 06:58N 34°33' E 135°27'0 0.0
2017-Apr-23 06:16N 34°33' E 135°27'0 1.7
2017-Apr-23 05:59N 34°33' E 135°26'0 0.0
2017-Apr-23 05:30N 34°33' E 135°26'0 0.1
2017-Apr-23 04:55N 34°33' E 135°26'0 0.1
2017-Apr-23 04:29N 34°33' E 135°26'0 0.9
2017-Apr-23 03:59N 34°33' E 135°26'2 4.8
2017-Apr-23 03:29N 34°33' E 135°23'2 3.2
2017-Apr-23 02:59N 34°34' E 135°21'5 1.6
2017-Apr-22 23:52N 34°33' E 135°27'0 0.0
2017-Apr-22 23:29N 34°33' E 135°27'0 0.0
2017-Apr-22 04:26N 34°33' E 135°27'2 0.9
2017-Apr-22 02:34N 34°34' E 135°24'0 0.9
2017-Apr-22 02:08N 34°33' E 135°24'3 5.6
2017-Apr-22 01:36N 34°33' E 135°20'0 1.3
2017-Apr-22 01:30N 34°33' E 135°20'0 0.4
2017-Apr-22 01:00N 34°33' E 135°20'3 3.0
2017-Apr-21 23:50N 34°31' E 135°24'0 0.0
2017-Apr-21 23:23N 34°31' E 135°24'0 0.7
2017-Apr-21 22:57N 34°31' E 135°24'1 1.3
2017-Apr-21 22:30N 34°31' E 135°23'2 3.5
2017-Apr-21 21:59N 34°32' E 135°22'1 1.2
2017-Apr-21 21:30N 34°32' E 135°23'3 0.3
2017-Apr-21 09:16N 34°33' E 135°27'0 0.0
2017-Apr-21 08:57N 34°33' E 135°27'0 0.0
2017-Apr-21 08:30N 34°33' E 135°27'0 0.0
2017-Apr-21 07:56N 34°33' E 135°27'0 0.0
2017-Apr-21 07:20N 34°33' E 135°27'0 0.0
2017-Apr-21 06:54N 34°33' E 135°27'0 0.0
2017-Apr-21 06:30N 34°33' E 135°27'0 0.0
2017-Apr-21 05:56N 34°33' E 135°27'0 0.0
2017-Apr-21 05:30N 34°33' E 135°27'0 0.0
2017-Apr-21 03:17N 34°33' E 135°27'2 4.1
2017-Apr-21 02:52N 34°33' E 135°25'1 1.1
2017-Apr-21 02:21N 34°34' E 135°24'0 0.0
2017-Apr-21 01:56N 34°34' E 135°24'0 0.1
2017-Apr-21 01:24N 34°34' E 135°24'1 1.5
2017-Apr-21 00:59N 34°33' E 135°24'3 6.5
2017-Apr-21 00:30N 34°33' E 135°20'1 2.6
2017-Apr-20 23:57N 34°33' E 135°22'4 9.4
2017-Apr-20 23:31N 34°33' E 135°27'0 0.0
2017-Apr-20 09:04N 34°33' E 135°27'0 0.0
2017-Apr-19 07:15N 34°33' E 135°27'0 0.0
2017-Apr-19 06:21N 34°33' E 135°27'0 0.0
2017-Apr-19 05:45N 34°33' E 135°27'0 0.0
2017-Apr-19 05:21N 34°33' E 135°27'0 0.0
2017-Apr-19 04:51N 34°33' E 135°27'0 0.2
2017-Apr-19 03:43N 34°33' E 135°26'310.5
2017-Apr-19 03:26N 34°34' E 135°23'1 2.6
2017-Apr-19 03:00N 34°33' E 135°24'0 0.2
2017-Apr-19 02:30N 34°33' E 135°24'0 0.5
2017-Apr-19 02:00N 34°33' E 135°24'2 1.2
2017-Apr-19 00:29N 34°31' E 135°24'0 0.0
2017-Apr-18 23:57N 34°31' E 135°24'1 1.4
2017-Apr-18 23:30N 34°32' E 135°24'612.2
2017-Apr-18 23:01N 34°33' E 135°17'612.7
2017-Apr-18 22:30N 34°34' E 135°09'713.4
2017-Apr-18 22:00N 34°37' E 135°01'3 1.2
2017-Apr-18 19:29N 34°37' E 134°58'4 8.5
2017-Apr-18 19:00N 34°36' E 135°03'3 6.4
2017-Apr-18 18:30N 34°36' E 135°07'3 6.8
2017-Apr-18 18:00N 34°33' E 135°09'712.8
2017-Apr-18 17:28N 34°26' E 135°05'713.9
2017-Apr-18 16:58N 34°20' E 135°01'613.5
2017-Apr-18 16:30N 34°14' E 134°60'3 5.6
2017-Apr-18 15:58N 34°11' E 135°01'1 3.1
2017-Apr-18 15:30N 34°12' E 135°03'5 9.9
2017-Apr-18 15:00N 34°13' E 135°08'0 0.2
2017-Apr-18 14:30N 34°13' E 135°09'0 0.0
2017-Apr-18 13:30N 34°13' E 135°09'0 0.0
2017-Apr-18 13:00N 34°13' E 135°09'0 0.0
2017-Apr-18 12:30N 34°13' E 135°09'0 0.0
2017-Apr-18 12:00N 34°13' E 135°09'0 0.0
2017-Apr-18 11:24N 34°13' E 135°09'0 0.0
2017-Apr-18 11:00N 34°13' E 135°09'0 0.0
2017-Apr-18 10:30N 34°13' E 135°09'0 0.0
2017-Apr-18 10:00N 34°13' E 135°09'0 0.0
2017-Apr-18 09:30N 34°13' E 135°09'0 0.0
2017-Apr-18 09:00N 34°13' E 135°09'0 0.0
2017-Apr-18 08:30N 34°13' E 135°09'0 0.0
2017-Apr-18 08:00N 34°13' E 135°09'0 0.0
2017-Apr-18 07:30N 34°13' E 135°09'0 0.0
2017-Apr-18 06:54N 34°13' E 135°09'0 0.0
2017-Apr-18 06:27N 34°13' E 135°09'5 9.7
2017-Apr-18 05:55N 34°15' E 135°03'712.0
2017-Apr-18 05:21N 34°21' E 135°08'412.3
2017-Apr-18 05:00N 34°23' E 135°12'612.3
2017-Apr-18 04:30N 34°27' E 135°18'612.1
2017-Apr-18 04:00N 34°32' E 135°22'2 3.8
2017-Apr-18 03:30N 34°33' E 135°24'0 0.1
2017-Apr-18 03:00N 34°33' E 135°24'0 0.2
2017-Apr-18 02:30N 34°33' E 135°24'2 3.8
2017-Apr-18 01:54N 34°33' E 135°21'1 2.6
2017-Apr-18 01:30N 34°33' E 135°20'0 0.1
2017-Apr-18 01:00N 34°33' E 135°20'3 6.6
2017-Apr-18 00:30N 34°34' E 135°24'1 2.9
2017-Apr-18 00:00N 34°33' E 135°26'1 0.9
2017-Apr-17 23:22N 34°34' E 135°25'0 0.5
2017-Apr-17 22:55N 34°34' E 135°25'0 0.5
2017-Apr-17 22:27N 34°33' E 135°25'4 6.6
2017-Apr-17 21:52N 34°33' E 135°20'2 5.8
2017-Apr-17 21:30N 34°35' E 135°18'610.3
2017-Apr-17 20:58N 34°31' E 135°23'0 0.9
2017-Apr-17 20:30N 34°31' E 135°24'0 0.6
2017-Apr-17 19:57N 34°31' E 135°24'0 0.0
2017-Apr-17 10:19N 34°31' E 135°24'2 7.5
2017-Apr-17 10:00N 34°32' E 135°21'611.2
2017-Apr-17 09:30N 34°29' E 135°15'9 3.3
2017-Apr-17 06:45N 34°30' E 135°05'310.5
2017-Apr-17 06:29N 34°32' E 135°06'2 4.6
2017-Apr-17 06:00N 34°35' E 135°06'  

Dump ship's entire track history